Costa Victoria — IBLC — position and weather

sailwx.info

Track history (hours):
 
Tides and Currents Weather Stations Pressure Air Temp Water Temp Dewpoint Dewpoint Depression Visibility Wind Speed Wind Dir Waves Ship Positions

Costa Victoria

Last reported at 2018-Jun-21 15:59 UTC. Time now 2018-Jun-21 16:26 UTC.
Position N 39°33' E 002°38'.

Length 252 m; draft 8 m.

Type: Passenger vessel. MMSI: 247109000.

Date/timePositionNaut miles runAvg speedWind from/ knotsBaromVisibWave heightAir tempDewpointWater temp
2018-Jun-21 15:59N 39°33' E 002°38'0 0.0
2018-Jun-21 15:29N 39°33' E 002°38'0 0.0
2018-Jun-21 14:59N 39°33' E 002°38'0 0.0
2018-Jun-21 14:29N 39°33' E 002°38'0 0.0
2018-Jun-21 13:59N 39°33' E 002°38'0 0.0
2018-Jun-21 13:29N 39°33' E 002°38'0 0.0
2018-Jun-21 12:59N 39°33' E 002°38'0 0.0
2018-Jun-21 12:29N 39°33' E 002°38'0 0.0
2018-Jun-21 11:59N 39°33' E 002°38'0 0.0
2018-Jun-21 11:29N 39°33' E 002°38'0 0.0
2018-Jun-21 10:59N 39°33' E 002°38'0 0.0
2018-Jun-21 10:29N 39°33' E 002°38'0 0.0
2018-Jun-21 09:59N 39°33' E 002°38'0 0.0
2018-Jun-21 09:29N 39°33' E 002°38'0 0.0
2018-Jun-21 08:59N 39°33' E 002°38'0 0.0
2018-Jun-21 08:29N 39°33' E 002°38'0 0.0
2018-Jun-21 07:59N 39°33' E 002°38'0 0.3
2018-Jun-21 07:30N 39°33' E 002°38'3 6.3
2018-Jun-21 07:00N 39°30' E 002°37'714.8
2018-Jun-21 06:30N 39°24' E 002°31'714.1
2018-Jun-21 06:00N 39°20' E 002°24'611.6
2018-Jun-21 05:30N 39°16' E 002°19'5 9.7
2018-Jun-21 05:00N 39°13' E 002°13'4 9.0
2018-Jun-21 04:30N 39°10' E 002°09'5 9.5
2018-Jun-21 03:58N 39°08' E 002°03'1120.9
2018-Jun-21 03:28N 39°02' E 001°52'1021.5
2018-Jun-21 03:00N 38°57' E 001°41'1018.4
2018-Jun-21 02:28N 38°54' E 001°29'2 1.4
2018-Jun-21 01:24N 38°54' E 001°27'0 0.0
2018-Jun-21 00:51N 38°54' E 001°27'0 0.0
2018-Jun-20 20:48N 38°54' E 001°27'0 0.0
2018-Jun-20 20:18N 38°54' E 001°27'0 0.0
2018-Jun-20 14:05N 38°54' E 001°27'0 0.0
2018-Jun-20 13:41N 38°54' E 001°27'0 0.0
2018-Jun-20 12:17N 38°54' E 001°27'0 0.0
2018-Jun-20 08:53N 38°54' E 001°27'0 0.0
2018-Jun-20 07:17N 38°54' E 001°27'0 0.0
2018-Jun-20 06:56N 38°54' E 001°27'0 0.0
2018-Jun-20 06:30N 38°54' E 001°27'4 4.3
2018-Jun-20 05:41N 38°54' E 001°31'311.5
2018-Jun-20 05:24N 38°54' E 001°36'3711.4
2018-Jun-20 02:07N 38°53' E 002°24'111.2
2018-Jun-20 02:00N 38°53' E 002°25'2111.3
2018-Jun-20 00:08N 38°53' E 002°52'211.5
2018-Jun-19 23:58N 38°53' E 002°55'511.4
2018-Jun-19 23:30N 38°53' E 003°02'811.1
2018-Jun-19 22:50N 38°56' E 003°11'711.5
2018-Jun-19 22:12N 39°00' E 003°18'4116.3
2018-Jun-19 19:40N 39°38' E 003°40'231 9.3
2018-Jun-18 18:55N 41°12' E 008°18'6516.1
2018-Jun-18 14:53N 40°59' E 009°42'514.0
2018-Jun-18 14:30N 40°56' E 009°37'80 5.3
2018-Jun-17 23:32N 42°15' E 009°44'220.5
2018-Jun-17 23:26N 42°17' E 009°43'1520.3
2018-Jun-17 22:40N 42°33' E 009°42'319.7
2018-Jun-17 22:30N 42°36' E 009°41'918.8
2018-Jun-17 22:00N 42°46' E 009°40'918.9
2018-Jun-17 21:30N 42°55' E 009°37'918.7
2018-Jun-17 21:00N 43°04' E 009°34'918.8
2018-Jun-17 20:30N 43°12' E 009°28'918.9
2018-Jun-17 20:00N 43°20' E 009°21'918.4
2018-Jun-17 19:30N 43°28' E 009°14'918.4
2018-Jun-17 19:00N 43°36' E 009°08'918.6
2018-Jun-17 18:30N 43°44' E 009°01'918.8
2018-Jun-17 18:00N 43°52' E 008°54'918.8
2018-Jun-17 17:30N 43°60' E 008°47'918.8
2018-Jun-17 17:00N 44°08' E 008°41'918.7
2018-Jun-17 16:30N 44°16' E 008°34'4 8.8
2018-Jun-17 16:00N 44°19' E 008°30'0 0.8
2018-Jun-17 15:30N 44°19' E 008°29'0 0.0
2018-Jun-17 15:00N 44°19' E 008°29'0 0.0
2018-Jun-17 14:30N 44°19' E 008°29'0 0.0
2018-Jun-17 14:00N 44°19' E 008°29'0 0.0
2018-Jun-17 13:30N 44°19' E 008°29'0 0.0
2018-Jun-17 13:00N 44°19' E 008°29'0 0.0
2018-Jun-17 12:30N 44°19' E 008°29'0 0.0
2018-Jun-17 12:00N 44°19' E 008°29'0 0.0
2018-Jun-17 11:30N 44°19' E 008°29'0 0.0
2018-Jun-17 11:00N 44°19' E 008°29'0 0.0
2018-Jun-17 10:30N 44°19' E 008°29'0 0.0
2018-Jun-17 10:00N 44°19' E 008°29'0 0.0
2018-Jun-17 09:30N 44°19' E 008°29'0 0.0
2018-Jun-17 09:00N 44°19' E 008°29'0 0.0
2018-Jun-17 08:30N 44°19' E 008°29'0 0.0
2018-Jun-17 08:00N 44°19' E 008°29'0 0.0
2018-Jun-17 07:31N 44°19' E 008°29'0 0.0
2018-Jun-17 07:01N 44°19' E 008°29'0 0.0
2018-Jun-17 06:30N 44°19' E 008°29'1 2.7
2018-Jun-17 06:00N 44°19' E 008°31'5 9.9
2018-Jun-17 05:30N 44°14' E 008°32'611.8
2018-Jun-17 05:00N 44°09' E 008°29'611.8
2018-Jun-17 04:30N 44°04' E 008°25'611.8
2018-Jun-17 04:00N 43°59' E 008°21'611.6
2018-Jun-17 03:30N 43°54' E 008°17'611.2
2018-Jun-17 03:00N 43°49' E 008°12'510.9
2018-Jun-17 02:30N 43°46' E 008°06'510.8
2018-Jun-17 02:00N 43°42' E 008°01'510.9
2018-Jun-17 01:30N 43°38' E 007°56'511.0
2018-Jun-17 01:00N 43°34' E 007°50'611.1
2018-Jun-17 00:30N 43°30' E 007°45'611.2
2018-Jun-17 00:00N 43°27' E 007°39'510.8
2018-Jun-16 23:30N 43°23' E 007°34'510.7
2018-Jun-16 23:00N 43°19' E 007°28'610.8
2018-Jun-16 22:30N 43°15' E 007°23'611.9
2018-Jun-16 22:00N 43°12' E 007°16'611.8
2018-Jun-16 21:30N 43°08' E 007°10'612.0
2018-Jun-16 21:00N 43°04' E 007°04'612.1
2018-Jun-16 20:30N 43°00' E 006°58'611.9
2018-Jun-16 20:00N 42°56' E 006°51'611.6
2018-Jun-16 19:30N 42°52' E 006°46'611.6
2018-Jun-16 19:00N 42°49' E 006°39'611.5
2018-Jun-16 18:29N 42°46' E 006°33'611.7
2018-Jun-16 18:00N 42°43' E 006°26'611.9
2018-Jun-16 17:30N 42°40' E 006°19'612.0
2018-Jun-16 17:00N 42°37' E 006°12'612.0
2018-Jun-16 16:28N 42°34' E 006°04'3111.7
2018-Jun-16 13:48N 42°20' E 005°27'311.4
2018-Jun-16 13:30N 42°18' E 005°23'611.6
2018-Jun-16 13:00N 42°15' E 005°16'611.6
2018-Jun-16 12:30N 42°13' E 005°09'13715.9
2018-Jun-16 03:52N 41°11' E 002°25'616.0
2018-Jun-16 03:30N 41°10' E 002°17'816.1
2018-Jun-16 03:00N 41°08' E 002°07'816.2
2018-Jun-16 02:30N 41°07' E 001°56'816.1
2018-Jun-16 02:00N 41°06' E 001°46'816.0
2018-Jun-16 01:29N 41°05' E 001°35'16 1.2
2018-Jun-15 11:53N 41°05' E 001°13'0 0.0
2018-Jun-15 11:29N 41°05' E 001°13'111 7.6
2018-Jun-14 20:51N 39°23' E 002°12'514.6
2018-Jun-14 20:30N 39°23' E 002°19'714.5
2018-Jun-14 20:00N 39°22' E 002°28'814.3
2018-Jun-14 19:28N 39°28' E 002°36'612.9
2018-Jun-14 18:59N 39°33' E 002°39'1 1.3
2018-Jun-14 18:28N 39°33' E 002°38'0 0.0
2018-Jun-14 17:58N 39°33' E 002°38'0 0.0
2018-Jun-14 17:28N 39°33' E 002°38'0 0.0
2018-Jun-14 16:58N 39°33' E 002°38'0 0.0
2018-Jun-14 16:28N 39°33' E 002°38'0 0.0
2018-Jun-14 15:58N 39°33' E 002°38'0 0.0
2018-Jun-14 15:28N 39°33' E 002°38'0 0.0
2018-Jun-14 14:58N 39°33' E 002°38'0 0.0
2018-Jun-14 14:28N 39°33' E 002°38'0 0.0
2018-Jun-14 13:58N 39°33' E 002°38'0 0.0
2018-Jun-14 13:28N 39°33' E 002°38'0 0.0
2018-Jun-14 12:58N 39°33' E 002°38'0 0.0
2018-Jun-14 12:28N 39°33' E 002°38'0 0.0
2018-Jun-14 11:58N 39°33' E 002°38'0 0.0
2018-Jun-14 11:28N 39°33' E 002°38'0 0.0
2018-Jun-14 10:58N 39°33' E 002°38'0 0.0
2018-Jun-14 10:28N 39°33' E 002°38'0 0.0
2018-Jun-14 09:58N 39°33' E 002°38'0 0.0
2018-Jun-14 09:28N 39°33' E 002°38'0 0.0
2018-Jun-14 08:58N 39°33' E 002°38'0 0.0
2018-Jun-14 08:28N 39°33' E 002°38'0 0.0
2018-Jun-14 07:58N 39°33' E 002°38'1 1.2
2018-Jun-14 07:30N 39°33' E 002°39'4 7.8
2018-Jun-14 07:00N 39°30' E 002°37'815.9
2018-Jun-14 06:30N 39°24' E 002°30'815.8
2018-Jun-14 06:00N 39°18' E 002°23'1014.5
2018-Jun-14 05:21N 39°12' E 002°13'4 9.0
2018-Jun-14 04:54N 39°10' E 002°09'3 8.6
2018-Jun-14 04:30N 39°08' E 002°05'2014.0
2018-Jun-14 03:06N 38°58' E 001°44'220.0
2018-Jun-14 02:59N 38°57' E 001°41'918.5
2018-Jun-14 02:30N 38°54' E 001°30'2 0.9
2018-Jun-13 23:56N 38°54' E 001°27'0 0.0
2018-Jun-13 15:47N 38°54' E 001°27'0 0.0
2018-Jun-13 13:50N 38°54' E 001°27'0 0.0
2018-Jun-13 11:53N 38°54' E 001°27'0 0.0
2018-Jun-13 09:26N 38°54' E 001°27'0 0.0
2018-Jun-13 02:14N 38°54' E 001°27'1 0.1
2018-Jun-12 17:30N 38°54' E 001°27'2 3.8
2018-Jun-12 16:57N 38°54' E 001°30'612.4
2018-Jun-12 16:29N 38°54' E 001°37'816.7
2018-Jun-12 16:00N 38°54' E 001°47'1016.8
2018-Jun-12 15:24N 38°54' E 002°00'716.4
2018-Jun-12 14:59N 38°54' E 002°09'1018.1
2018-Jun-12 14:25N 38°57' E 002°22'819.3
2018-Jun-12 14:00N 38°59' E 002°32'1219.4
2018-Jun-12 13:22N 39°02' E 002°47'719.2
2018-Jun-12 12:59N 39°04' E 002°56'1219.5
2018-Jun-12 12:22N 39°10' E 003°10'1420.6
2018-Jun-12 11:42N 39°19' E 003°23'  
Track history (hours):
 
Tides and Currents Weather Stations Pressure Air Temp Water Temp Dewpoint Dewpoint Depression Visibility Wind Speed Wind Dir Waves Ship Positions

Costa Victoria

Last reported at 2018-Jun-21 15:59 UTC. Time now 2018-Jun-21 16:26 UTC.
Position N 39°33' E 002°38'.

Length 252 m; draft 8 m.

Type: Passenger vessel. MMSI: 247109000.

Date/timePositionNaut miles runAvg speedWind from/ knotsBaromVisibWave heightAir tempDewpointWater temp
2018-Jun-21 15:59N 39°33' E 002°38'0 0.0
2018-Jun-21 15:29N 39°33' E 002°38'0 0.0
2018-Jun-21 14:59N 39°33' E 002°38'0 0.0
2018-Jun-21 14:29N 39°33' E 002°38'0 0.0
2018-Jun-21 13:59N 39°33' E 002°38'0 0.0
2018-Jun-21 13:29N 39°33' E 002°38'0 0.0
2018-Jun-21 12:59N 39°33' E 002°38'0 0.0
2018-Jun-21 12:29N 39°33' E 002°38'0 0.0
2018-Jun-21 11:59N 39°33' E 002°38'0 0.0
2018-Jun-21 11:29N 39°33' E 002°38'0 0.0
2018-Jun-21 10:59N 39°33' E 002°38'0 0.0
2018-Jun-21 10:29N 39°33' E 002°38'0 0.0
2018-Jun-21 09:59N 39°33' E 002°38'0 0.0
2018-Jun-21 09:29N 39°33' E 002°38'0 0.0
2018-Jun-21 08:59N 39°33' E 002°38'0 0.0
2018-Jun-21 08:29N 39°33' E 002°38'0 0.0
2018-Jun-21 07:59N 39°33' E 002°38'0 0.3
2018-Jun-21 07:30N 39°33' E 002°38'3 6.3
2018-Jun-21 07:00N 39°30' E 002°37'714.8
2018-Jun-21 06:30N 39°24' E 002°31'714.1
2018-Jun-21 06:00N 39°20' E 002°24'611.6
2018-Jun-21 05:30N 39°16' E 002°19'5 9.7
2018-Jun-21 05:00N 39°13' E 002°13'4 9.0
2018-Jun-21 04:30N 39°10' E 002°09'5 9.5
2018-Jun-21 03:58N 39°08' E 002°03'1120.9
2018-Jun-21 03:28N 39°02' E 001°52'1021.5
2018-Jun-21 03:00N 38°57' E 001°41'1018.4
2018-Jun-21 02:28N 38°54' E 001°29'2 1.4
2018-Jun-21 01:24N 38°54' E 001°27'0 0.0
2018-Jun-21 00:51N 38°54' E 001°27'0 0.0
2018-Jun-20 20:48N 38°54' E 001°27'0 0.0
2018-Jun-20 20:18N 38°54' E 001°27'0 0.0
2018-Jun-20 14:05N 38°54' E 001°27'0 0.0
2018-Jun-20 13:41N 38°54' E 001°27'0 0.0
2018-Jun-20 12:17N 38°54' E 001°27'0 0.0
2018-Jun-20 08:53N 38°54' E 001°27'0 0.0
2018-Jun-20 07:17N 38°54' E 001°27'0 0.0
2018-Jun-20 06:56N 38°54' E 001°27'0 0.0
2018-Jun-20 06:30N 38°54' E 001°27'4 4.3
2018-Jun-20 05:41N 38°54' E 001°31'311.5
2018-Jun-20 05:24N 38°54' E 001°36'3711.4
2018-Jun-20 02:07N 38°53' E 002°24'111.2
2018-Jun-20 02:00N 38°53' E 002°25'2111.3
2018-Jun-20 00:08N 38°53' E 002°52'211.5
2018-Jun-19 23:58N 38°53' E 002°55'511.4
2018-Jun-19 23:30N 38°53' E 003°02'811.1
2018-Jun-19 22:50N 38°56' E 003°11'711.5
2018-Jun-19 22:12N 39°00' E 003°18'4116.3
2018-Jun-19 19:40N 39°38' E 003°40'231 9.3
2018-Jun-18 18:55N 41°12' E 008°18'6516.1
2018-Jun-18 14:53N 40°59' E 009°42'514.0
2018-Jun-18 14:30N 40°56' E 009°37'80 5.3
2018-Jun-17 23:32N 42°15' E 009°44'220.5
2018-Jun-17 23:26N 42°17' E 009°43'1520.3
2018-Jun-17 22:40N 42°33' E 009°42'319.7
2018-Jun-17 22:30N 42°36' E 009°41'918.8
2018-Jun-17 22:00N 42°46' E 009°40'918.9
2018-Jun-17 21:30N 42°55' E 009°37'918.7
2018-Jun-17 21:00N 43°04' E 009°34'918.8
2018-Jun-17 20:30N 43°12' E 009°28'918.9
2018-Jun-17 20:00N 43°20' E 009°21'918.4
2018-Jun-17 19:30N 43°28' E 009°14'918.4
2018-Jun-17 19:00N 43°36' E 009°08'918.6
2018-Jun-17 18:30N 43°44' E 009°01'918.8
2018-Jun-17 18:00N 43°52' E 008°54'918.8
2018-Jun-17 17:30N 43°60' E 008°47'918.8
2018-Jun-17 17:00N 44°08' E 008°41'918.7
2018-Jun-17 16:30N 44°16' E 008°34'4 8.8
2018-Jun-17 16:00N 44°19' E 008°30'0 0.8
2018-Jun-17 15:30N 44°19' E 008°29'0 0.0
2018-Jun-17 15:00N 44°19' E 008°29'0 0.0
2018-Jun-17 14:30N 44°19' E 008°29'0 0.0
2018-Jun-17 14:00N 44°19' E 008°29'0 0.0
2018-Jun-17 13:30N 44°19' E 008°29'0 0.0
2018-Jun-17 13:00N 44°19' E 008°29'0 0.0
2018-Jun-17 12:30N 44°19' E 008°29'0 0.0
2018-Jun-17 12:00N 44°19' E 008°29'0 0.0
2018-Jun-17 11:30N 44°19' E 008°29'0 0.0
2018-Jun-17 11:00N 44°19' E 008°29'0 0.0
2018-Jun-17 10:30N 44°19' E 008°29'0 0.0
2018-Jun-17 10:00N 44°19' E 008°29'0 0.0
2018-Jun-17 09:30N 44°19' E 008°29'0 0.0
2018-Jun-17 09:00N 44°19' E 008°29'0 0.0
2018-Jun-17 08:30N 44°19' E 008°29'0 0.0
2018-Jun-17 08:00N 44°19' E 008°29'0 0.0
2018-Jun-17 07:31N 44°19' E 008°29'0 0.0
2018-Jun-17 07:01N 44°19' E 008°29'0 0.0
2018-Jun-17 06:30N 44°19' E 008°29'1 2.7
2018-Jun-17 06:00N 44°19' E 008°31'5 9.9
2018-Jun-17 05:30N 44°14' E 008°32'611.8
2018-Jun-17 05:00N 44°09' E 008°29'611.8
2018-Jun-17 04:30N 44°04' E 008°25'611.8
2018-Jun-17 04:00N 43°59' E 008°21'611.6
2018-Jun-17 03:30N 43°54' E 008°17'611.2
2018-Jun-17 03:00N 43°49' E 008°12'510.9
2018-Jun-17 02:30N 43°46' E 008°06'510.8
2018-Jun-17 02:00N 43°42' E 008°01'510.9
2018-Jun-17 01:30N 43°38' E 007°56'511.0
2018-Jun-17 01:00N 43°34' E 007°50'611.1
2018-Jun-17 00:30N 43°30' E 007°45'611.2
2018-Jun-17 00:00N 43°27' E 007°39'510.8
2018-Jun-16 23:30N 43°23' E 007°34'510.7
2018-Jun-16 23:00N 43°19' E 007°28'610.8
2018-Jun-16 22:30N 43°15' E 007°23'611.9
2018-Jun-16 22:00N 43°12' E 007°16'611.8
2018-Jun-16 21:30N 43°08' E 007°10'612.0
2018-Jun-16 21:00N 43°04' E 007°04'612.1
2018-Jun-16 20:30N 43°00' E 006°58'611.9
2018-Jun-16 20:00N 42°56' E 006°51'611.6
2018-Jun-16 19:30N 42°52' E 006°46'611.6
2018-Jun-16 19:00N 42°49' E 006°39'611.5
2018-Jun-16 18:29N 42°46' E 006°33'611.7
2018-Jun-16 18:00N 42°43' E 006°26'611.9
2018-Jun-16 17:30N 42°40' E 006°19'612.0
2018-Jun-16 17:00N 42°37' E 006°12'612.0
2018-Jun-16 16:28N 42°34' E 006°04'3111.7
2018-Jun-16 13:48N 42°20' E 005°27'311.4
2018-Jun-16 13:30N 42°18' E 005°23'611.6
2018-Jun-16 13:00N 42°15' E 005°16'611.6
2018-Jun-16 12:30N 42°13' E 005°09'13715.9
2018-Jun-16 03:52N 41°11' E 002°25'616.0
2018-Jun-16 03:30N 41°10' E 002°17'816.1
2018-Jun-16 03:00N 41°08' E 002°07'816.2
2018-Jun-16 02:30N 41°07' E 001°56'816.1
2018-Jun-16 02:00N 41°06' E 001°46'816.0
2018-Jun-16 01:29N 41°05' E 001°35'16 1.2
2018-Jun-15 11:53N 41°05' E 001°13'0 0.0
2018-Jun-15 11:29N 41°05' E 001°13'111 7.6
2018-Jun-14 20:51N 39°23' E 002°12'514.6
2018-Jun-14 20:30N 39°23' E 002°19'714.5
2018-Jun-14 20:00N 39°22' E 002°28'814.3
2018-Jun-14 19:28N 39°28' E 002°36'612.9
2018-Jun-14 18:59N 39°33' E 002°39'1 1.3
2018-Jun-14 18:28N 39°33' E 002°38'0 0.0
2018-Jun-14 17:58N 39°33' E 002°38'0 0.0
2018-Jun-14 17:28N 39°33' E 002°38'0 0.0
2018-Jun-14 16:58N 39°33' E 002°38'0 0.0
2018-Jun-14 16:28N 39°33' E 002°38'0 0.0
2018-Jun-14 15:58N 39°33' E 002°38'0 0.0
2018-Jun-14 15:28N 39°33' E 002°38'0 0.0
2018-Jun-14 14:58N 39°33' E 002°38'0 0.0
2018-Jun-14 14:28N 39°33' E 002°38'0 0.0
2018-Jun-14 13:58N 39°33' E 002°38'0 0.0
2018-Jun-14 13:28N 39°33' E 002°38'0 0.0
2018-Jun-14 12:58N 39°33' E 002°38'0 0.0
2018-Jun-14 12:28N 39°33' E 002°38'0 0.0
2018-Jun-14 11:58N 39°33' E 002°38'0 0.0
2018-Jun-14 11:28N 39°33' E 002°38'0 0.0
2018-Jun-14 10:58N 39°33' E 002°38'0 0.0
2018-Jun-14 10:28N 39°33' E 002°38'0 0.0
2018-Jun-14 09:58N 39°33' E 002°38'0 0.0
2018-Jun-14 09:28N 39°33' E 002°38'0 0.0
2018-Jun-14 08:58N 39°33' E 002°38'0 0.0
2018-Jun-14 08:28N 39°33' E 002°38'0 0.0
2018-Jun-14 07:58N 39°33' E 002°38'1 1.2
2018-Jun-14 07:30N 39°33' E 002°39'4 7.8
2018-Jun-14 07:00N 39°30' E 002°37'815.9
2018-Jun-14 06:30N 39°24' E 002°30'815.8
2018-Jun-14 06:00N 39°18' E 002°23'1014.5
2018-Jun-14 05:21N 39°12' E 002°13'4 9.0
2018-Jun-14 04:54N 39°10' E 002°09'3 8.6
2018-Jun-14 04:30N 39°08' E 002°05'2014.0
2018-Jun-14 03:06N 38°58' E 001°44'220.0
2018-Jun-14 02:59N 38°57' E 001°41'918.5
2018-Jun-14 02:30N 38°54' E 001°30'2 0.9
2018-Jun-13 23:56N 38°54' E 001°27'0 0.0
2018-Jun-13 15:47N 38°54' E 001°27'0 0.0
2018-Jun-13 13:50N 38°54' E 001°27'0 0.0
2018-Jun-13 11:53N 38°54' E 001°27'0 0.0
2018-Jun-13 09:26N 38°54' E 001°27'0 0.0
2018-Jun-13 02:14N 38°54' E 001°27'1 0.1
2018-Jun-12 17:30N 38°54' E 001°27'2 3.8
2018-Jun-12 16:57N 38°54' E 001°30'612.4
2018-Jun-12 16:29N 38°54' E 001°37'816.7
2018-Jun-12 16:00N 38°54' E 001°47'1016.8
2018-Jun-12 15:24N 38°54' E 002°00'716.4
2018-Jun-12 14:59N 38°54' E 002°09'1018.1
2018-Jun-12 14:25N 38°57' E 002°22'819.3
2018-Jun-12 14:00N 38°59' E 002°32'1219.4
2018-Jun-12 13:22N 39°02' E 002°47'719.2
2018-Jun-12 12:59N 39°04' E 002°56'1219.5
2018-Jun-12 12:22N 39°10' E 003°10'1420.6
2018-Jun-12 11:42N 39°19' E 003°23'  

Dump ship's entire track history